createdAt,value
2018-04-17T00:00:06.678Z,75.7
2018-04-17T00:00:47.070Z,75.37
2018-04-17T00:01:27.444Z,75.7
2018-04-17T00:02:07.873Z,75.85
2018-04-17T00:02:48.240Z,76.23
2018-04-17T00:03:28.640Z,76.04
2018-04-17T00:04:09.047Z,76.71
2018-04-17T00:04:49.439Z,76.23
2018-04-17T00:05:29.836Z,76.23
2018-04-17T00:06:10.220Z,76.52
2018-04-17T00:06:50.623Z,77.09
2018-04-17T00:07:31.004Z,77
2018-04-17T00:08:11.388Z,77.28
2018-04-17T00:08:51.790Z,77.19
2018-04-17T00:09:32.201Z,77.86
2018-04-17T00:10:12.576Z,77.47
2018-04-17T00:10:52.977Z,77.47
2018-04-17T00:11:33.362Z,77.28
2018-04-17T00:12:13.748Z,77.76
2018-04-17T00:12:54.130Z,77.76
2018-04-17T00:13:34.552Z,78.23
2018-04-17T00:14:14.927Z,78.14
2018-04-17T00:14:55.324Z,78.14
2018-04-17T00:15:35.714Z,77.76
2018-04-17T00:16:16.076Z,77.95
2018-04-17T00:16:56.468Z,78.62
2018-04-17T00:17:36.849Z,78.05
2018-04-17T00:18:17.250Z,79
2018-04-17T00:18:57.637Z,78.23
2018-04-17T00:19:38.041Z,78.91
2018-04-17T00:20:18.416Z,78.62
2018-04-17T00:20:58.795Z,78.81
2018-04-17T00:21:39.196Z,78.72
2018-04-17T00:22:19.653Z,78.67
2018-04-17T00:23:00.026Z,79.35
2018-04-17T00:23:40.392Z,78.81
2018-04-17T00:24:20.805Z,78.67
2018-04-17T00:25:01.208Z,78.67
2018-04-17T00:25:41.591Z,78.96
2018-04-17T00:26:22.004Z,78.49
2018-04-17T00:27:02.380Z,78.77
2018-04-17T00:27:42.783Z,78.77
2018-04-17T00:28:23.197Z,78.96
2018-04-17T00:29:03.615Z,79.15
2018-04-17T00:29:44.032Z,79.25
2018-04-17T00:30:24.447Z,79.15
2018-04-17T00:31:04.879Z,79.25
2018-04-17T00:31:45.296Z,79.15
2018-04-17T00:32:25.742Z,79.53
2018-04-17T00:33:06.126Z,80.3
2018-04-17T00:33:46.535Z,79.63
2018-04-17T00:34:26.940Z,80.2
2018-04-17T00:35:07.385Z,80.3
2018-04-17T00:35:47.771Z,79.53
2018-04-17T00:36:28.187Z,80.3
2018-04-17T00:37:08.623Z,80.39
2018-04-17T00:37:49.033Z,80.2
2018-04-17T00:38:29.464Z,80.39
2018-04-17T00:39:09.843Z,79.91
2018-04-17T00:39:50.214Z,79.91
2018-04-17T00:40:30.620Z,80.01
2018-04-17T00:41:11.002Z,80.49
2018-04-17T00:41:51.410Z,80.2
2018-04-17T00:42:31.790Z,80.77
2018-04-17T00:43:12.222Z,80.2
2018-04-17T00:43:52.604Z,80.3
2018-04-17T00:44:33.017Z,80.3
2018-04-17T00:45:13.442Z,80.16
2018-04-17T00:45:53.766Z,80.73
2018-04-17T00:46:34.162Z,81.02
2018-04-17T00:47:14.529Z,81.02
2018-04-17T00:47:54.911Z,81.12
2018-04-17T00:48:35.299Z,80.83
2018-04-17T00:49:15.713Z,81.12
2018-04-17T00:49:56.085Z,81.02
2018-04-17T00:50:36.491Z,80.83
2018-04-17T00:51:16.865Z,80.92
2018-04-17T00:51:57.244Z,80.73
2018-04-17T00:52:37.630Z,81.12
2018-04-17T00:53:18.024Z,80.92
2018-04-17T00:53:58.438Z,81.59
2018-04-17T00:54:38.781Z,81.49
2018-04-17T00:55:19.168Z,81.59
2018-04-17T00:55:59.573Z,82.07
2018-04-17T00:56:39.955Z,81.49
2018-04-17T00:57:20.385Z,81.21
2018-04-17T00:58:00.753Z,81.21
2018-04-17T00:58:41.164Z,81.21
2018-04-17T00:59:21.559Z,81.88
2018-04-17T01:00:01.937Z,81.68
2018-04-17T01:00:42.336Z,81.88
2018-04-17T01:01:22.726Z,81.97
2018-04-17T01:02:03.139Z,81.97
2018-04-17T01:02:43.569Z,81.88
2018-04-17T01:03:23.961Z,82.54
2018-04-17T01:04:04.364Z,82.17
2018-04-17T01:04:44.738Z,82.73
2018-04-17T01:05:25.121Z,82.35
2018-04-17T01:06:05.522Z,82.35
2018-04-17T01:06:45.948Z,82.73
2018-04-17T01:07:26.337Z,82.35
2018-04-17T01:08:06.744Z,82.73
2018-04-17T01:08:47.150Z,82.35
2018-04-17T01:09:27.518Z,83.02
2018-04-17T01:10:07.911Z,82.73
2018-04-17T01:10:48.309Z,82.54
2018-04-17T01:11:28.740Z,83.12
2018-04-17T01:12:09.128Z,83.31
2018-04-17T01:12:49.470Z,82.45
2018-04-17T01:13:29.875Z,82.26
2018-04-17T01:14:10.259Z,82.17
2018-04-17T01:14:50.659Z,81.88
2018-04-17T01:15:31.040Z,82.07
2018-04-17T01:16:11.476Z,81.97
2018-04-17T01:16:51.901Z,81.88
2018-04-17T01:17:32.327Z,81.88
2018-04-17T01:18:12.752Z,82.17
2018-04-17T01:18:53.178Z,82.17
2018-04-17T01:19:33.593Z,82.54
2018-04-17T01:20:13.993Z,82.54
2018-04-17T01:20:54.359Z,82.35
2018-04-17T01:21:34.756Z,82.64
2018-04-17T01:22:15.183Z,82.35
2018-04-17T01:22:55.607Z,82.45
2018-04-17T01:23:36.030Z,82.35
2018-04-17T01:24:16.456Z,82.35
2018-04-17T01:24:56.871Z,83.12
2018-04-17T01:25:37.267Z,82.98
2018-04-17T01:26:17.659Z,83.26
2018-04-17T01:26:58.060Z,83.07
2018-04-17T01:27:38.438Z,83.07
2018-04-17T01:28:18.843Z,83.07
2018-04-17T01:30:11.166Z,83.36
2018-04-17T01:30:51.593Z,83.93
2018-04-17T01:31:32.010Z,83.55
2018-04-17T01:32:12.431Z,83.84
2018-04-17T01:32:52.869Z,83.55
2018-04-17T01:33:33.287Z,84.03
2018-04-17T01:34:13.707Z,84.03
2018-04-17T01:34:54.125Z,84.6
2018-04-17T01:35:34.527Z,84.6
2018-04-17T01:36:14.926Z,84.88
2018-04-17T01:36:55.347Z,85.08
2018-04-17T01:37:35.765Z,84.69
2018-04-17T01:38:16.166Z,84.69
2018-04-17T01:38:56.540Z,85.36
2018-04-17T01:39:36.939Z,85.55
2018-04-17T01:40:17.335Z,85.55
2018-04-17T01:40:57.745Z,85.55
2018-04-17T01:41:38.142Z,85.46
2018-04-17T01:42:18.544Z,84.98
2018-04-17T01:42:58.956Z,84.88
2018-04-17T01:43:39.358Z,84.6
2018-04-17T01:44:19.741Z,84.88
2018-04-17T01:45:00.117Z,84.98
2018-04-17T01:45:40.502Z,84.69
2018-04-17T01:46:20.898Z,84.88
2018-04-17T01:47:01.296Z,85.08
2018-04-17T01:47:41.683Z,85.17
2018-04-17T01:48:22.082Z,85.64
2018-04-17T01:49:02.462Z,85.46
2018-04-17T01:49:42.854Z,85.27
2018-04-17T01:51:35.191Z,85.08
2018-04-17T01:52:15.614Z,84.98
2018-04-17T01:52:56.063Z,85.74
2018-04-17T01:53:36.473Z,85.64
2018-04-17T01:54:16.891Z,84.88
2018-04-17T01:54:57.316Z,85.17
2018-04-17T01:55:37.741Z,84.5
2018-04-17T01:56:18.177Z,84.5
2018-04-17T01:56:58.577Z,84.41
2018-04-17T01:57:38.934Z,84.88
2018-04-17T01:58:19.354Z,84.69
2018-04-17T01:58:59.745Z,84.88
2018-04-17T01:59:40.149Z,84.88
2018-04-17T02:00:20.540Z,84.88
2018-04-17T02:01:00.957Z,84.88
2018-04-17T02:01:41.339Z,84.88
2018-04-17T02:02:21.726Z,84.79
2018-04-17T02:03:02.091Z,84.79
2018-04-17T02:03:42.499Z,84.69
2018-04-17T02:04:22.881Z,84.79
2018-04-17T02:05:03.328Z,85.17
2018-04-17T02:05:43.703Z,84.84
2018-04-17T02:06:24.123Z,84.79
2018-04-17T02:07:04.557Z,85.08
2018-04-17T02:07:44.952Z,85.08
2018-04-17T02:08:25.336Z,85.17
2018-04-17T02:09:05.729Z,85.08
2018-04-17T02:09:46.144Z,84.88
2018-04-17T02:10:26.546Z,85.08
2018-04-17T02:11:06.936Z,84.98
2018-04-17T02:11:47.328Z,85.08
2018-04-17T02:12:27.721Z,84.88
2018-04-17T02:13:08.097Z,85.03
2018-04-17T02:13:48.504Z,84.65
2018-04-17T02:14:28.925Z,84.84
2018-04-17T02:15:09.360Z,84.75
2018-04-17T02:15:49.763Z,84.94
2018-04-17T02:16:30.197Z,84.94
2018-04-17T02:17:10.580Z,85.03
2018-04-17T02:17:50.994Z,84.84
2018-04-17T02:18:31.384Z,84.84
2018-04-17T02:19:11.819Z,84.94
2018-04-17T02:19:52.231Z,84.75
2018-04-17T02:20:32.619Z,85.51
2018-04-17T02:21:13.017Z,85.03
2018-04-17T02:21:53.451Z,85.51
2018-04-17T02:22:33.835Z,85.32
2018-04-17T02:23:14.220Z,85.13
2018-04-17T02:23:54.623Z,85.13
2018-04-17T02:24:35.025Z,85.7
2018-04-17T02:25:15.423Z,85.51
2018-04-17T02:25:55.795Z,85.7
2018-04-17T02:26:36.192Z,85.51
2018-04-17T02:27:16.588Z,85.41
2018-04-17T02:27:56.968Z,85.51
2018-04-17T02:28:37.351Z,85.41
2018-04-17T02:29:17.738Z,85.41
2018-04-17T02:29:58.126Z,85.41
2018-04-17T02:30:38.538Z,85.41
2018-04-17T02:31:18.900Z,85.32
2018-04-17T02:31:59.315Z,85.51
2018-04-17T02:32:39.703Z,86.08
2018-04-17T02:33:20.098Z,85.99
2018-04-17T02:34:00.459Z,86.18
2018-04-17T02:34:40.853Z,86.08
2018-04-17T02:35:21.246Z,86.27
2018-04-17T02:36:01.638Z,86.18
2018-04-17T02:36:42.031Z,86.18
2018-04-17T02:37:22.419Z,85.99
2018-04-17T02:38:02.797Z,86.46
2018-04-17T02:38:43.183Z,85.99
2018-04-17T02:39:23.585Z,86.36
2018-04-17T02:40:03.993Z,85.99
2018-04-17T02:40:44.383Z,86.55
2018-04-17T02:41:24.790Z,86.84
2018-04-17T02:42:05.157Z,86.94
2018-04-17T02:42:45.547Z,87.13
2018-04-17T02:43:25.939Z,86.27
2018-04-17T02:44:06.338Z,86.55
2018-04-17T02:44:46.753Z,86.08
2018-04-17T02:45:27.125Z,86.36
2018-04-17T02:46:07.523Z,86.27
2018-04-17T02:46:47.959Z,86.94
2018-04-17T02:47:28.387Z,86.27
2018-04-17T02:48:08.762Z,86.18
2018-04-17T02:48:49.166Z,86.18
2018-04-17T02:49:29.558Z,86.08
2018-04-17T02:50:09.962Z,85.99
2018-04-17T02:50:50.359Z,85.6
2018-04-17T02:51:30.745Z,85.99
2018-04-17T02:52:11.170Z,85.51
2018-04-17T02:52:51.549Z,85.6
2018-04-17T02:53:31.979Z,85.51
2018-04-17T02:54:12.409Z,86.18
2018-04-17T02:54:52.828Z,86.18
2018-04-17T02:55:33.216Z,86.18
2018-04-17T02:56:13.652Z,86.46
2018-04-17T02:56:54.078Z,85.99
2018-04-17T02:57:34.503Z,86.27
2018-04-17T02:58:14.896Z,86.46
2018-04-17T02:58:55.321Z,86.08
2018-04-17T02:59:35.724Z,86.36
2018-04-17T03:00:16.140Z,86.27
2018-04-17T03:00:56.568Z,86.27
2018-04-17T03:01:36.988Z,85.99
2018-04-17T03:02:17.368Z,86.13
2018-04-17T03:02:57.781Z,85.89
2018-04-17T03:03:38.167Z,86.08
2018-04-17T03:04:18.552Z,86.04
2018-04-17T03:04:58.963Z,86.22
2018-04-17T03:05:39.384Z,86.22
2018-04-17T03:06:19.791Z,86.27
2018-04-17T03:07:00.201Z,86.22
2018-04-17T03:07:40.599Z,86.8
2018-04-17T03:08:21.000Z,86.42
2018-04-17T03:09:01.413Z,86.32
2018-04-17T03:09:41.851Z,87.08
2018-04-17T03:10:22.243Z,86.8
2018-04-17T03:11:02.669Z,86.99
2018-04-17T03:11:43.108Z,87.08
2018-04-17T03:12:23.529Z,86.7
2018-04-17T03:13:03.932Z,86.9
2018-04-17T03:13:44.350Z,86.51
2018-04-17T03:14:24.724Z,87.08
2018-04-17T03:15:05.111Z,87.18
2018-04-17T03:15:45.489Z,87.08
2018-04-17T03:16:25.896Z,87.08
2018-04-17T03:17:06.285Z,87.27
2018-04-17T03:17:46.693Z,87.27
2018-04-17T03:18:27.061Z,86.99
2018-04-17T03:19:07.446Z,86.9
2018-04-17T03:19:47.884Z,87.08
2018-04-17T03:20:28.294Z,86.9
2018-04-17T03:21:08.678Z,87.08
2018-04-17T03:21:49.031Z,86.42
2018-04-17T03:22:29.416Z,86.42
2018-04-17T03:23:09.804Z,86.7
2018-04-17T03:23:50.215Z,86.42
2018-04-17T03:24:30.632Z,86.7
2018-04-17T03:25:11.027Z,86.22
2018-04-17T03:25:51.467Z,86.42
2018-04-17T03:26:31.858Z,86.42
2018-04-17T03:27:12.259Z,86.42
2018-04-17T03:27:52.638Z,86.42
2018-04-17T03:28:33.033Z,86.42
2018-04-17T03:29:13.438Z,86.9
2018-04-17T03:29:53.817Z,86.9
2018-04-17T03:30:34.200Z,87.94
2018-04-17T03:31:14.615Z,87.46
2018-04-17T03:31:54.999Z,88.04
2018-04-17T03:32:35.420Z,87.27
2018-04-17T03:33:15.827Z,87.75
2018-04-17T03:33:56.227Z,88.32
2018-04-17T03:34:36.632Z,88.7
2018-04-17T03:35:17.016Z,88.42
2018-04-17T03:35:57.514Z,88.32
2018-04-17T03:36:37.841Z,87.27
2018-04-17T03:37:18.221Z,87.94
2018-04-17T03:37:58.639Z,88.6
2018-04-17T03:38:39.035Z,88.6
2018-04-17T03:39:19.428Z,87.94
2018-04-17T03:39:59.845Z,87.98
2018-04-17T03:40:40.211Z,87.79
2018-04-17T03:41:20.608Z,87.98
2018-04-17T03:42:01.009Z,87.13
2018-04-17T03:42:41.405Z,86.94
2018-04-17T03:43:21.780Z,87.32
2018-04-17T03:44:02.187Z,87.03
2018-04-17T03:44:42.577Z,86.55
2018-04-17T03:45:23.004Z,85.51
2018-04-17T03:46:03.376Z,84.27
2018-04-17T03:46:43.775Z,83.8
2018-04-17T03:47:24.165Z,83.61
2018-04-17T03:48:04.598Z,83.7
2018-04-17T03:48:44.973Z,83.51
2018-04-17T03:49:25.391Z,83.94
2018-04-17T03:50:05.785Z,84.04
2018-04-17T03:50:46.206Z,83.75
2018-04-17T03:51:26.607Z,83.94
2018-04-17T03:52:07.018Z,83.94
2018-04-17T03:52:47.415Z,84.04
2018-04-17T03:53:27.813Z,84.7
2018-04-17T03:54:08.217Z,84.99
2018-04-17T03:54:48.623Z,85.47
2018-04-17T03:55:29.018Z,86.32
2018-04-17T03:56:09.422Z,86.13
2018-04-17T03:56:49.806Z,86.22
2018-04-17T03:57:30.224Z,85.47
2018-04-17T03:59:43.104Z,86.42
2018-04-17T04:00:23.408Z,86.51
2018-04-17T04:01:03.781Z,87.08
2018-04-17T04:45:38.430Z,95.41
2018-04-17T04:46:18.842Z,94.74
2018-04-17T04:46:59.223Z,94.27
2018-04-17T04:47:39.670Z,94.51
2018-04-17T04:48:20.138Z,94.22
2018-04-17T04:49:00.533Z,93.65
2018-04-17T04:49:40.940Z,93.75
2018-04-17T04:50:21.355Z,93.46
2018-04-17T04:51:01.770Z,93.75
2018-04-17T04:51:42.205Z,92.8
2018-04-17T04:52:22.606Z,93.27
2018-04-17T04:53:03.017Z,92.22
2018-04-17T04:53:43.423Z,91.47
2018-04-17T04:54:23.854Z,91.37
2018-04-17T04:55:04.289Z,90.99
2018-04-17T04:55:44.638Z,90.94
2018-04-17T04:56:25.081Z,91.32
2018-04-17T04:57:05.510Z,90.37
2018-04-17T04:57:45.895Z,90.66
2018-04-17T04:58:26.312Z,90.08
2018-04-17T04:59:06.735Z,89.37
2018-04-17T04:59:47.141Z,87.08
2018-04-17T05:00:27.595Z,88.7
2018-04-17T05:01:07.952Z,87.85
2018-04-17T05:01:48.398Z,87.08
2018-04-17T05:02:28.851Z,85.94
2018-04-17T05:03:09.306Z,84.56
2018-04-17T05:03:49.765Z,83.47
2018-04-17T05:04:30.255Z,83.41
2018-04-17T05:05:10.640Z,83.22
2018-04-17T05:05:51.169Z,83.32
2018-04-17T05:06:31.636Z,83.51
2018-04-17T05:07:12.510Z,83.98
2018-04-17T05:07:53.103Z,83.41
2018-04-17T05:08:33.378Z,82.46
2018-04-17T05:10:07.486Z,80.98
2018-04-17T05:10:47.890Z,81.84
2018-04-17T05:11:28.306Z,81.07
2018-04-17T05:12:08.689Z,80.22
2018-04-17T05:12:49.110Z,79.07
2018-04-17T05:13:29.549Z,79.07
2018-04-17T05:14:10.224Z,79.21
2018-04-17T05:14:50.728Z,78.44
2018-04-17T05:15:31.157Z,78.35
2018-04-17T05:16:11.661Z,77.69
2018-04-17T05:16:51.974Z,77.69
2018-04-17T05:17:32.451Z,77.44
2018-04-17T05:18:12.765Z,76.2
2018-04-17T05:18:53.623Z,75.91
2018-04-17T05:19:34.027Z,75.53
2018-04-17T05:20:14.431Z,75.15
2018-04-17T05:20:54.933Z,75.05
2018-04-17T05:21:35.321Z,74.48
2018-04-17T05:22:15.726Z,74.23
2018-04-17T05:22:56.116Z,74.99
2018-04-17T05:23:36.510Z,74.32
2018-04-17T05:24:16.910Z,73.28
2018-04-17T05:24:57.309Z,73.41
2018-04-17T05:28:49.120Z,69.43
2018-04-17T05:29:29.391Z,68.86
2018-04-17T05:30:09.886Z,68
2018-04-17T05:30:50.147Z,68
2018-04-17T05:31:30.700Z,68.48
2018-04-17T05:32:10.926Z,68.48
2018-04-17T05:32:51.333Z,68.04
2018-04-17T05:34:50.801Z,67.4
2018-04-17T05:35:31.202Z,66.92
2018-04-17T05:36:11.625Z,65.68
2018-04-17T05:36:52.032Z,65.48
2018-04-17T05:37:32.432Z,63.86
2018-04-17T05:38:12.823Z,64.28
2018-04-17T05:38:53.208Z,64.47
2018-04-17T05:39:33.608Z,63.89
2018-04-17T05:40:14.048Z,62.74
2018-04-17T05:40:54.467Z,61.98
2018-04-17T05:41:34.831Z,61.54
2018-04-17T05:42:15.231Z,61.25
2018-04-17T05:42:55.636Z,61.44
2018-04-17T05:43:36.028Z,60.38
2018-04-17T05:44:16.404Z,60.32
2018-04-17T05:44:56.852Z,59.36
2018-04-17T05:45:37.417Z,59.65
2018-04-17T05:46:17.869Z,59.36
2018-04-17T05:46:58.599Z,59.3
2018-04-17T05:47:38.941Z,57.76
2018-04-17T05:48:19.429Z,56.9
2018-04-17T05:48:59.782Z,57.76
2018-04-17T05:49:40.227Z,58.24
2018-04-17T05:50:20.649Z,57.09
2018-04-17T05:51:01.059Z,57.12
2018-04-17T05:51:41.509Z,56.93
2018-04-17T05:52:22.172Z,56.54
2018-04-17T05:53:02.590Z,55.68
2018-04-17T05:53:43.090Z,55.87
2018-04-17T05:54:23.688Z,55.68
2018-04-17T05:55:04.191Z,54.82
2018-04-17T05:55:44.814Z,54.91
2018-04-17T05:56:26.168Z,55.01
2018-04-17T05:57:06.347Z,54.82
2018-04-17T05:57:49.963Z,54.94
2018-04-17T05:58:30.869Z,54.17
2018-04-17T05:59:11.681Z,53.03
2018-04-17T05:59:52.969Z,53.6
2018-04-17T06:00:33.591Z,53.53
2018-04-17T06:01:14.319Z,53.24
2018-04-17T06:01:54.863Z,53.63
2018-04-17T06:02:35.274Z,53.44
2018-04-17T06:03:15.725Z,52.57
2018-04-17T06:03:56.195Z,51.9
2018-04-17T06:04:36.595Z,51.45
2018-04-17T06:05:17.114Z,51.54
2018-04-17T06:05:57.519Z,51.16
2018-04-17T06:06:37.989Z,51.35
2018-04-17T06:07:18.433Z,51.06
2018-04-17T06:07:58.791Z,50.58
2018-04-17T06:08:39.211Z,50.61
2018-04-17T06:09:19.720Z,50.13
2018-04-17T06:10:00.148Z,49.46
2018-04-17T06:10:40.675Z,49.26
2018-04-17T06:11:21.118Z,49.36
2018-04-17T06:12:01.448Z,50.23
2018-04-17T06:12:41.812Z,49.74
2018-04-17T06:14:29.164Z,48.81
2018-04-17T06:15:09.741Z,48.33
2018-04-17T06:15:50.087Z,48.33
2018-04-17T06:16:30.495Z,48.07
2018-04-17T06:17:10.879Z,46.91
2018-04-17T06:17:51.311Z,46.91
2018-04-17T06:18:31.816Z,46.62
2018-04-17T06:19:12.354Z,46.91
2018-04-17T06:19:52.791Z,47.03
2018-04-17T06:20:33.187Z,46.45
2018-04-17T06:21:13.580Z,45.97
2018-04-17T06:21:54.046Z,46.55
2018-04-17T06:22:34.500Z,45.68
2018-04-17T06:23:15.170Z,45.68
2018-04-17T06:23:55.982Z,44.91
2018-04-17T06:24:36.318Z,45.13
2018-04-17T06:25:20.437Z,45.22
2018-04-17T06:26:04.740Z,44.65
2018-04-17T06:26:45.118Z,45.13
2018-04-17T06:27:25.539Z,45.51
2018-04-17T06:28:05.911Z,45.03
2018-04-17T06:28:46.315Z,45.61
2018-04-17T06:29:26.730Z,45.61
2018-04-17T06:30:07.246Z,45.8
2018-04-17T06:30:47.690Z,45.7
2018-04-17T06:31:28.747Z,45.03
2018-04-17T06:32:14.434Z,44.84
2018-04-17T06:32:54.580Z,44.26
2018-04-17T06:33:37.893Z,44.45
2018-04-17T06:34:18.301Z,44.28
2018-04-17T06:34:58.690Z,44.38
2018-04-17T06:35:39.077Z,44.38
2018-04-17T06:36:19.466Z,44.28
2018-04-17T06:36:59.903Z,44.57
2018-04-17T06:37:40.360Z,44.67
2018-04-17T06:38:20.848Z,44.38
2018-04-17T06:39:01.446Z,44.09
2018-04-17T06:39:41.949Z,43.9
2018-04-17T06:40:22.465Z,44.45
2018-04-17T06:41:03.054Z,44.74
2018-04-17T06:41:43.701Z,45.7
2018-04-17T06:42:24.230Z,45.22
2018-04-17T06:43:04.834Z,45.03
2018-04-17T06:43:45.239Z,44.93
2018-04-17T06:44:25.773Z,44.67
2018-04-17T06:45:06.237Z,44.38
2018-04-17T06:45:46.673Z,44.38
2018-04-17T06:46:27.048Z,44.48
2018-04-17T06:47:08.077Z,44.38
2018-04-17T06:47:48.619Z,44.74
2018-04-17T06:48:29.944Z,45.13
2018-04-17T06:49:10.213Z,45.03
2018-04-17T06:49:50.682Z,45.7
2018-04-17T06:50:31.130Z,45.8
2018-04-17T06:51:11.571Z,45.99
2018-04-17T06:51:51.942Z,45.61
2018-04-17T06:52:32.384Z,45.99
2018-04-17T06:53:12.718Z,45.99
2018-04-17T06:53:53.200Z,45.9
2018-04-17T06:54:33.625Z,45.9
2018-04-17T06:55:15.404Z,45.61
2018-04-17T06:55:55.953Z,45.7
2018-04-17T06:56:37.597Z,45.83
2018-04-17T06:57:17.276Z,45.83
2018-04-17T06:57:58.167Z,45.44
2018-04-17T06:58:40.390Z,45.73
2018-04-17T06:59:20.388Z,45.53
2018-04-17T07:00:00.740Z,45.73
2018-04-17T07:00:41.541Z,45.53
2018-04-17T07:01:22.260Z,46.11
2018-04-17T07:02:02.683Z,46.4
2018-04-17T07:02:43.286Z,46.59
2018-04-17T07:03:24.369Z,46.95
2018-04-17T07:04:04.695Z,46.38
2018-04-17T07:04:45.329Z,46.95
2018-04-17T07:05:25.890Z,47.24
2018-04-17T07:06:06.240Z,47.63
2018-04-17T07:06:46.708Z,47.72
2018-04-17T07:07:27.120Z,47.99
2018-04-17T07:08:07.683Z,48.18
2018-04-17T07:08:48.159Z,48.21
2018-04-17T07:09:29.382Z,48.02
2018-04-17T07:10:09.465Z,48.02
2018-04-17T07:10:50.168Z,48.21
2018-04-17T07:11:30.853Z,48.21
2018-04-17T07:12:11.462Z,48.47
2018-04-17T07:12:52.189Z,48.85
2018-04-17T07:13:32.706Z,49.05
2018-04-17T07:14:13.525Z,48.28
2018-04-17T07:14:53.664Z,48.38
2018-04-17T07:15:34.661Z,48.57
2018-04-17T07:16:15.060Z,48.47
2018-04-17T07:16:55.661Z,49.43
2018-04-17T07:17:36.102Z,49.33
2018-04-17T07:18:16.445Z,49.53
2018-04-17T07:18:57.026Z,50.01
2018-04-17T07:19:37.407Z,49.82
2018-04-17T07:20:17.845Z,49.89
2018-04-17T07:20:58.454Z,50.01
2018-04-17T07:21:38.963Z,49.72
2018-04-17T07:22:19.404Z,50.2
2018-04-17T07:22:59.897Z,50.68
2018-04-17T07:23:40.259Z,49.82
2018-04-17T07:24:22.703Z,49.24
2018-04-17T07:25:03.223Z,49.43
2018-04-17T07:25:43.654Z,49.72
2018-04-17T07:26:24.231Z,49.53
2018-04-17T07:27:04.824Z,49.24
2018-04-17T07:27:46.820Z,49.53
2018-04-17T07:28:27.699Z,49.53
2018-04-17T07:29:07.884Z,49.24
2018-04-17T07:29:48.206Z,49.72
2018-04-17T07:30:28.631Z,50.1
2018-04-17T07:31:09.051Z,50.01
2018-04-17T07:31:49.477Z,50.1
2018-04-17T07:32:31.605Z,50.01
2018-04-17T07:33:12.045Z,50.04
2018-04-17T07:33:52.478Z,49.94
2018-04-17T07:34:32.934Z,49.94
2018-04-17T07:35:13.396Z,49.17
2018-04-17T07:35:53.856Z,49.58
2018-04-17T07:36:34.215Z,49.1
2018-04-17T07:37:14.655Z,48.43
2018-04-17T07:37:55.099Z,48.44
2018-04-17T07:39:42.448Z,47.1
2018-04-17T07:40:23.058Z,47.87
2018-04-17T07:41:03.539Z,48.54
2018-04-17T07:41:44.083Z,48.06
2018-04-17T07:42:24.707Z,48.35
2018-04-17T07:43:05.217Z,47.67
2018-04-17T07:43:46.835Z,47.29
2018-04-17T07:44:27.266Z,47.31
2018-04-17T07:45:08.055Z,47.03
2018-04-17T07:45:48.260Z,46.64
2018-04-17T07:46:28.731Z,46.64
2018-04-17T07:47:11.020Z,46.08
2018-04-17T07:47:51.514Z,45.79
2018-04-17T07:48:31.846Z,45.79
2018-04-17T07:49:13.141Z,45.24
2018-04-17T07:49:53.674Z,45.04
2018-04-17T07:50:34.382Z,44.95
2018-04-17T07:51:14.838Z,44.49
2018-04-17T07:51:55.560Z,43.41
2018-04-17T07:52:36.069Z,43.41
2018-04-17T07:53:16.458Z,43.67
2018-04-17T07:53:56.871Z,43.38
2018-04-17T07:54:37.501Z,44.45
2018-04-17T07:55:18.045Z,43.87
2018-04-17T07:55:58.306Z,44.15
2018-04-17T07:56:38.761Z,44.35
2018-04-17T07:57:20.914Z,44.37
2018-04-17T07:58:03.368Z,43.89
2018-04-17T07:58:46.091Z,43.96
2018-04-17T07:59:26.699Z,44.18
2018-04-17T08:00:08.216Z,43.89
2018-04-17T08:02:01.581Z,43.24
2018-04-17T08:02:41.998Z,43.24
2018-04-17T08:03:22.470Z,43.62
2018-04-17T08:04:03.161Z,42.85
2018-04-17T08:04:44.372Z,43.04
2018-04-17T08:07:28.973Z,42.85
2018-04-17T08:08:16.998Z,42.77
2018-04-17T08:09:02.672Z,42.58
2018-04-17T08:09:42.626Z,42.1
2018-04-17T08:10:23.004Z,42
2018-04-17T08:11:03.431Z,42.19
2018-04-17T08:11:43.900Z,42.29
2018-04-17T08:12:24.507Z,42.77
2018-04-17T08:13:04.888Z,42.48
2018-04-17T08:13:45.336Z,42.39
2018-04-17T08:14:25.940Z,41.73
2018-04-17T08:15:06.812Z,41.73
2018-04-17T08:15:47.213Z,41.44
2018-04-17T08:16:27.994Z,41.44
2018-04-17T08:17:08.212Z,41.25
2018-04-17T08:17:49.502Z,41.46
2018-04-17T08:18:31.906Z,40.98
2018-04-17T08:19:11.989Z,40.86
2018-04-17T08:19:52.323Z,41.25
2018-04-17T08:20:33.253Z,41.35
2018-04-17T08:21:13.965Z,41.25
2018-04-17T08:21:54.566Z,41.46
2018-04-17T08:22:35.097Z,40.98
2018-04-17T08:23:16.426Z,41.27
2018-04-17T08:23:57.128Z,40.98
2018-04-17T08:24:37.603Z,40.78
2018-04-17T08:25:18.391Z,40.78
2018-04-17T08:25:59.953Z,40.78
2018-04-17T08:26:39.616Z,40.4
2018-04-17T08:27:20.395Z,41.08
2018-04-17T08:28:01.912Z,40.78
2018-04-17T08:28:42.777Z,40.5
2018-04-17T08:29:23.699Z,40.23
2018-04-17T08:30:04.950Z,39.84
2018-04-17T08:30:45.937Z,39.67
2018-04-17T08:31:25.697Z,39.18
2018-04-17T08:32:06.164Z,39.01
2018-04-17T08:32:47.532Z,38.33
2018-04-17T08:33:28.410Z,38.23
2018-04-17T08:34:08.870Z,38.62
2018-04-17T08:34:49.390Z,38.53
2018-04-17T08:35:29.795Z,39.01
2018-04-17T08:36:10.264Z,38.62
2018-04-17T08:36:51.132Z,38.23
2018-04-17T08:37:31.535Z,37.85
2018-04-17T08:39:18.907Z,38.33
2018-04-17T08:39:59.896Z,38.04
2018-04-17T08:40:40.944Z,38.53
2018-04-17T08:41:21.793Z,38.41
2018-04-17T08:42:02.388Z,39.18
2018-04-17T08:42:44.642Z,38.7
2018-04-17T08:43:24.484Z,38.89
2018-04-17T08:44:05.067Z,38.99
2018-04-17T08:44:51.321Z,39.18
2018-04-17T08:45:36.259Z,39.67
2018-04-17T08:46:17.616Z,39.76
2018-04-17T08:47:00.742Z,39.86
2018-04-17T08:47:41.062Z,38.89
2018-04-17T08:48:22.630Z,39.16
2018-04-17T08:49:02.695Z,40.2
2018-04-17T08:49:43.160Z,41.05
2018-04-17T08:50:23.714Z,41.54
2018-04-17T08:51:04.075Z,42.48
2018-04-17T08:51:44.856Z,43.06
2018-04-17T08:52:25.729Z,42.7
2018-04-17T08:53:07.349Z,42.31
2018-04-17T08:53:48.231Z,41.66
2018-04-17T08:54:29.122Z,41.08
2018-04-17T08:55:09.610Z,41.36
2018-04-17T08:55:50.070Z,40.23
2018-04-17T08:56:30.450Z,39.47
2018-04-17T08:57:10.869Z,39.37
2018-04-17T08:57:51.395Z,38.89
2018-04-17T08:58:31.816Z,38.41
2018-04-17T08:59:12.555Z,38.6
2018-04-17T08:59:52.661Z,38.33
2018-04-17T09:00:33.194Z,38.31
2018-04-17T09:01:13.614Z,38.89
2018-04-17T09:01:54.002Z,39.67
2018-04-17T09:02:34.747Z,39.45
2018-04-17T09:03:15.234Z,39.55
2018-04-17T09:03:55.557Z,39.45
2018-04-17T09:04:36.002Z,38.87
2018-04-17T09:05:16.568Z,39.36
2018-04-17T09:05:57.318Z,39.45
2018-04-17T09:06:37.744Z,39.45
2018-04-17T09:07:18.226Z,38.39
2018-04-17T09:07:59.708Z,39.16
2018-04-17T09:08:40.216Z,38.48
2018-04-17T09:09:20.159Z,38.2
2018-04-17T09:10:00.854Z,38
2018-04-17T09:10:41.445Z,37.81
2018-04-17T09:11:21.939Z,38.1
2018-04-17T09:12:02.520Z,37.24
2018-04-17T09:12:43.334Z,37.44
2018-04-17T09:13:23.996Z,37.32
2018-04-17T09:14:04.450Z,37.13
2018-04-17T09:14:44.979Z,37.42
2018-04-17T09:15:31.354Z,37.42
2018-04-17T09:16:11.501Z,37.6
2018-04-17T09:16:51.968Z,38.08
2018-04-17T09:17:32.546Z,38.87
2018-04-17T09:18:12.979Z,38.29
2018-04-17T09:18:54.103Z,37.9
2018-04-17T09:19:34.267Z,38.48
2018-04-17T09:20:14.962Z,38.48
2018-04-17T09:20:55.651Z,38.87
2018-04-17T09:21:36.006Z,38.28
2018-04-17T09:22:16.381Z,38.18
2018-04-17T09:22:56.820Z,38.85
2018-04-17T09:23:37.667Z,38.95
2018-04-17T09:24:18.048Z,38.66
2018-04-17T09:24:58.553Z,39.22
2018-04-17T09:25:38.958Z,39.51
2018-04-17T09:26:19.388Z,39.61
2018-04-17T09:26:59.946Z,39.61
2018-04-17T09:27:40.548Z,39.72
2018-04-17T09:28:20.889Z,38.83
2018-04-17T09:29:01.389Z,39.8
2018-04-17T09:29:41.976Z,39.39
2018-04-17T09:30:22.429Z,39.49
2018-04-17T09:31:02.890Z,39.69
2018-04-17T09:31:43.280Z,40.36
2018-04-17T09:32:23.706Z,40.38
2018-04-17T09:33:04.196Z,40.09
2018-04-17T09:33:44.697Z,39.82
2018-04-17T09:34:25.136Z,39.24
2018-04-17T09:35:05.736Z,39.06
2018-04-17T09:35:46.275Z,38.68
2018-04-17T09:36:26.622Z,38.6
2018-04-17T09:37:07.111Z,38.5
2018-04-17T09:37:47.581Z,37.65
2018-04-17T09:38:28.375Z,37.36
2018-04-17T09:39:08.759Z,36.6
2018-04-17T09:39:49.227Z,36.32
2018-04-17T09:40:29.707Z,36.2
2018-04-17T09:41:10.273Z,36.88
2018-04-17T09:41:51.665Z,36.98
2018-04-17T09:42:32.335Z,37.75
2018-04-17T09:43:12.820Z,38.23
2018-04-17T09:43:53.237Z,38.53